Time;durP1;ratioP1;P1;durP2;ratioP2;P2;SDS_P1;SDS_P2;PMS_P1;PMS_P2;Temp;Humidity;BMP_temperature;BMP_pressure;BME280_temperature;BME280_humidity;BME280_pressure;Samples;Min_cycle;Max_cycle;Signal;HPM_P1;HPM_P2
2023/05/28 00:01:01;;;;;;;39.38;18.63;;;;;;;12.75;100.00;102100.16;5015037;28;20045;-47
2023/05/28 00:03:26;;;;;;;34.88;17.75;;;;;;;12.76;100.00;102111.56;5032236;28;20033;-48
2023/05/28 00:05:52;;;;;;;32.70;17.10;;;;;;;12.68;100.00;102095.00;5032491;28;20194;-46
2023/05/28 00:08:18;;;;;;;32.80;17.85;;;;;;;12.74;100.00;102102.81;5032962;28;20467;-50
2023/05/28 00:10:43;;;;;;;34.17;18.17;;;;;;;12.69;100.00;102091.47;5031008;28;20040;-51
2023/05/28 00:13:08;;;;;;;33.60;16.77;;;;;;;12.67;100.00;102080.06;5024408;28;20030;-45
2023/05/28 00:15:35;;;;;;;35.67;17.27;;;;;;;12.69;100.00;102097.63;5032646;28;20113;-49
2023/05/28 00:18:01;;;;;;;32.05;17.70;;;;;;;12.56;100.00;102071.50;5014802;28;20397;-46
2023/05/28 00:20:26;;;;;;;37.05;17.38;;;;;;;12.59;100.00;102074.94;5032328;28;20041;-46
2023/05/28 00:22:51;;;;;;;33.92;17.00;;;;;;;12.16;100.00;102008.09;5032640;28;20452;-47
2023/05/28 00:25:17;;;;;;;31.33;17.45;;;;;;;12.55;100.00;102081.19;5032426;28;20469;-48
2023/05/28 00:27:42;;;;;;;34.08;17.27;;;;;;;12.14;100.00;102017.81;5032588;28;20033;-48
2023/05/28 00:30:08;;;;;;;28.80;16.17;;;;;;;12.46;100.00;102073.47;5031178;28;20124;-47
2023/05/28 00:32:33;;;;;;;37.33;17.40;;;;;;;12.43;100.00;102074.38;5014680;28;20045;-49
2023/05/28 00:34:58;;;;;;;33.88;15.88;;;;;;;12.32;100.00;102038.53;5032374;28;20121;-47
2023/05/28 00:37:24;;;;;;;36.72;18.27;;;;;;;12.04;100.00;102001.28;5032346;28;20056;-46
2023/05/28 00:39:49;;;;;;;34.92;16.98;;;;;;;12.34;100.00;102064.03;5032339;28;20505;-48
2023/05/28 00:42:14;;;;;;;37.03;18.25;;;;;;;11.87;100.00;101979.66;5014835;28;20037;-50
2023/05/28 00:44:41;;;;;;;35.13;17.38;;;;;;;11.94;100.00;101997.06;5032384;28;20037;-46
2023/05/28 00:47:06;;;;;;;37.28;18.00;;;;;;;12.30;100.00;102061.47;5030520;28;20092;-48
2023/05/28 00:49:32;;;;;;;35.95;18.63;;;;;;;11.98;100.00;102017.25;5014436;28;20477;-45
2023/05/28 00:51:58;;;;;;;44.67;19.42;;;;;;;12.06;100.00;102039.06;5032164;28;20148;-46
2023/05/28 00:54:23;;;;;;;33.92;17.38;;;;;;;11.84;100.00;102003.44;5006867;28;20030;-47
2023/05/28 00:56:49;;;;;;;32.42;17.58;;;;;;;11.82;100.00;101994.69;5026305;28;20037;-49
2023/05/28 00:59:16;;;;;;;36.58;18.30;;;;;;;12.14;100.00;102055.59;4998005;28;20441;-48
2023/05/28 01:01:42;;;;;;;35.05;17.92;;;;;;;11.85;100.00;102005.16;5032150;28;20052;-51
2023/05/28 01:04:08;;;;;;;33.92;17.85;;;;;;;12.12;100.00;102065.34;5013910;28;20034;-45
2023/05/28 01:06:37;;;;;;;43.97;18.98;;;;;;;12.07;100.00;102051.38;5031030;28;20034;-49
2023/05/28 01:09:04;;;;;;;35.00;19.52;;;;;;;11.65;100.00;101980.91;5032050;28;20037;-47
2023/05/28 01:11:29;;;;;;;35.33;17.52;;;;;;;11.67;100.00;101994.94;4998327;28;20030;-49
2023/05/28 01:13:55;;;;;;;29.52;18.20;;;;;;;11.94;100.00;102054.28;5014495;28;20383;-50
2023/05/28 01:16:21;;;;;;;40.47;18.75;;;;;;;11.94;100.00;102059.56;5015601;28;20454;-48
2023/05/28 01:18:47;;;;;;;35.13;18.23;;;;;;;11.62;100.00;101999.41;5035795;28;20033;-46
2023/05/28 01:21:12;;;;;;;34.67;17.80;;;;;;;11.88;100.00;102049.13;5036166;28;20136;-47
2023/05/28 01:23:47;;;;;;;34.45;17.38;;;;;;;11.90;100.00;102082.47;5035997;28;20112;-47
2023/05/28 01:26:14;;;;;;;38.67;19.25;;;;;;;11.82;100.00;102058.84;5035996;28;20091;-46
2023/05/28 01:28:44;;;;;;;42.08;19.20;;;;;;;11.29;100.00;101985.94;5035926;28;20069;-47
2023/05/28 01:31:13;;;;;;;45.45;19.98;;;;;;;11.49;100.00;101995.28;5018016;28;20431;-45
2023/05/28 01:33:41;;;;;;;36.70;20.27;;;;;;;11.52;100.00;102011.03;5018340;28;20400;-45
2023/05/28 01:36:09;;;;;;;38.55;19.55;;;;;;;11.85;100.00;102077.28;5035555;28;20439;-45
2023/05/28 01:38:35;;;;;;;34.20;18.98;;;;;;;11.81;100.00;102066.81;5035425;28;20434;-49
2023/05/28 01:41:01;;;;;;;36.65;18.98;;;;;;;11.78;100.00;102064.22;5017581;28;20037;-49
2023/05/28 01:43:26;;;;;;;41.72;19.23;;;;;;;11.49;100.00;102006.69;5017916;28;20037;-48
2023/05/28 01:45:52;;;;;;;44.10;19.35;;;;;;;11.42;100.00;101991.00;5035467;28;20041;-45
2023/05/28 01:48:18;;;;;;;38.80;19.27;;;;;;;11.74;100.00;102049.34;5001627;28;20108;-46
2023/05/28 01:50:43;;;;;;;37.65;18.60;;;;;;;11.48;100.00;101998.81;5017340;28;20056;-46
2023/05/28 01:53:08;;;;;;;40.92;19.80;;;;;;;11.75;100.00;102051.97;5035284;28;20038;-48
2023/05/28 01:55:33;;;;;;;37.92;19.40;;;;;;;11.44;100.00;102008.53;5035054;28;20037;-46
2023/05/28 01:57:59;;;;;;;38.20;18.48;;;;;;;11.76;100.00;102066.03;5035221;28;20084;-49
2023/05/28 02:00:24;;;;;;;37.78;18.77;;;;;;;11.38;100.00;102002.50;5034981;28;20042;-47
2023/05/28 02:02:49;;;;;;;38.90;18.73;;;;;;;11.70;100.00;102059.06;5035128;28;20030;-49
2023/05/28 02:05:15;;;;;;;39.50;18.70;;;;;;;11.60;100.00;102044.28;5035150;28;20037;-48
2023/05/28 02:07:41;;;;;;;39.53;18.83;;;;;;;11.65;100.00;102065.28;5035107;28;20037;-45
2023/05/28 02:10:07;;;;;;;29.48;17.73;;;;;;;11.24;100.00;102000.09;5034697;28;20546;-46
2023/05/28 02:12:32;;;;;;;37.95;19.40;;;;;;;11.39;100.00;102015.66;5017364;28;20030;-45
2023/05/28 02:14:58;;;;;;;45.65;20.08;;;;;;;11.43;100.00;102020.00;5034924;28;20080;-47
2023/05/28 02:17:24;;;;;;;40.88;21.38;;;;;;;11.49;100.00;102032.19;5034838;28;20029;-47
2023/05/28 02:19:49;;;;;;;36.05;18.58;;;;;;;11.51;100.00;102039.19;5034721;28;20037;-50
2023/05/28 02:22:14;;;;;;;36.20;20.52;;;;;;;11.51;100.00;102056.75;5034794;28;20033;-45
2023/05/28 02:24:40;;;;;;;40.38;20.30;;;;;;;11.26;100.00;102004.47;5017276;28;20036;-46
2023/05/28 02:27:06;;;;;;;41.83;19.60;;;;;;;11.50;100.00;102052.41;5034337;28;20104;-49
2023/05/28 02:29:32;;;;;;;43.00;20.52;;;;;;;11.42;100.00;102049.00;5017103;28;20091;-50
2023/05/28 02:31:58;;;;;;;38.33;19.33;;;;;;;11.16;100.00;102009.91;5000687;28;20029;-47
2023/05/28 02:34:23;;;;;;;37.72;20.55;;;;;;;11.40;100.00;102051.69;5017062;28;20037;-46
2023/05/28 02:36:48;;;;;;;42.13;20.73;;;;;;;11.04;100.00;101997.78;5034590;28;20045;-45
2023/05/28 02:39:14;;;;;;;41.10;22.10;;;;;;;11.40;100.00;102070.13;5034487;28;20038;-48
2023/05/28 02:41:40;;;;;;;40.60;20.52;;;;;;;11.38;100.00;102074.56;5034034;28;20041;-47
2023/05/28 02:44:05;;;;;;;39.85;20.77;;;;;;;11.28;100.00;102051.88;5016653;28;20480;-47
2023/05/28 02:46:30;;;;;;;40.65;19.25;;;;;;;11.05;100.00;102006.56;5016866;28;20076;-48
2023/05/28 02:48:56;;;;;;;44.75;19.50;;;;;;;11.10;100.00;102018.78;5034501;28;20037;-45
2023/05/28 02:51:21;;;;;;;43.38;19.80;;;;;;;10.85;100.00;101983.19;5034180;28;20179;-47
2023/05/28 02:53:46;;;;;;;43.67;21.45;;;;;;;11.28;100.00;102057.16;5034307;28;20033;-46
2023/05/28 02:56:12;;;;;;;39.97;19.60;;;;;;;11.27;100.00;102053.63;5034169;28;20034;-47
2023/05/28 02:58:37;;;;;;;41.53;20.40;;;;;;;11.05;100.00;102025.00;5033915;28;20038;-49
2023/05/28 03:01:03;;;;;;;36.63;20.17;;;;;;;11.26;100.00;102051.03;5034234;28;20468;-47
2023/05/28 03:03:28;;;;;;;38.22;20.90;;;;;;;11.30;100.00;102061.50;5034183;28;20175;-46
2023/05/28 03:05:54;;;;;;;40.03;20.85;;;;;;;11.30;100.00;102068.53;5034184;28;20084;-46
2023/05/28 03:08:20;;;;;;;43.78;22.00;;;;;;;10.85;100.00;102001.63;5034082;28;20180;-47
2023/05/28 03:10:45;;;;;;;43.85;21.42;;;;;;;10.87;100.00;102009.47;5033734;28;20373;-46
2023/05/28 03:13:10;;;;;;;37.47;20.40;;;;;;;10.07;100.00;101872.84;5033885;28;20282;-50
2023/05/28 03:15:36;;;;;;;42.10;20.02;;;;;;;11.18;100.00;102084.53;5016398;28;20111;-48
2023/05/28 03:18:01;;;;;;;41.60;20.67;;;;;;;11.14;100.00;102070.53;5034076;28;20053;-48
2023/05/28 03:20:26;;;;;;;39.95;20.27;;;;;;;11.07;100.00;102074.16;5015944;28;20476;-47
2023/05/28 03:22:58;;;;;;;40.33;20.13;;;;;;;11.05;100.00;102082.97;5033796;28;20038;-48
2023/05/28 03:25:25;;;;;;;39.83;19.77;;;;;;;10.99;100.00;102064.63;5016043;28;20044;-47
2023/05/28 03:27:51;;;;;;;34.97;19.65;;;;;;;10.47;100.00;101978.47;5033277;28;20030;-48
2023/05/28 03:30:16;;;;;;;36.03;19.58;;;;;;;10.97;100.00;102076.97;5033597;28;20469;-48
2023/05/28 03:32:42;;;;;;;42.35;19.85;;;;;;;10.56;100.00;102001.16;5033583;28;20072;-47
2023/05/28 03:35:07;;;;;;;44.80;21.33;;;;;;;10.91;100.00;102074.41;5033490;28;20411;-46
2023/05/28 03:37:33;;;;;;;32.30;17.67;;;;;;;10.90;100.00;102085.81;5015577;28;20033;-47
2023/05/28 03:39:58;;;;;;;41.70;19.90;;;;;;;10.86;100.00;102066.53;5032436;28;20128;-48
2023/05/28 03:42:24;;;;;;;40.38;18.98;;;;;;;10.49;100.00;102013.53;5015725;28;20399;-51
2023/05/28 03:44:49;;;;;;;38.83;19.75;;;;;;;10.65;100.00;102051.91;5033588;28;20044;-49
2023/05/28 03:47:14;;;;;;;36.03;20.38;;;;;;;10.78;100.00;102081.59;5033700;28;20118;-47
2023/05/28 03:49:40;;;;;;;37.85;20.25;;;;;;;10.41;100.00;102010.13;5032962;28;20116;-47
2023/05/28 03:52:05;;;;;;;41.60;18.48;;;;;;;10.72;100.00;102069.38;5014944;28;20453;-47
2023/05/28 03:54:32;;;;;;;35.60;18.58;;;;;;;10.70;100.00;102062.41;5032841;28;20480;-47
2023/05/28 03:56:57;;;;;;;39.45;20.17;;;;;;;10.66;100.00;102079.13;5032890;28;20107;-49
2023/05/28 03:59:23;;;;;;;39.30;19.85;;;;;;;10.65;100.00;102072.13;5033026;28;20080;-47
2023/05/28 04:01:48;;;;;;;37.35;20.27;;;;;;;10.56;100.00;102069.63;5033209;28;20179;-50
2023/05/28 04:04:13;;;;;;;41.83;19.98;;;;;;;10.65;100.00;102072.13;5015427;28;20120;-46
2023/05/28 04:06:39;;;;;;;35.42;19.35;;;;;;;10.40;100.00;102045.22;5032702;28;20482;-48
2023/05/28 04:09:05;;;;;;;40.55;19.38;;;;;;;10.20;100.00;102017.41;5032711;28;20116;-48
2023/05/28 04:11:30;;;;;;;40.42;17.95;;;;;;;10.29;100.00;102033.97;5032600;28;20121;-47
2023/05/28 04:13:56;;;;;;;38.42;19.02;;;;;;;10.59;100.00;102082.75;5032644;28;20073;-48
2023/05/28 04:16:22;;;;;;;35.13;18.30;;;;;;;10.28;100.00;102026.97;5032333;28;20480;-50
2023/05/28 04:18:52;;;;;;;36.78;19.08;;;;;;;10.58;100.00;102084.50;5032889;28;20040;-48
2023/05/28 04:21:17;;;;;;;39.08;19.17;;;;;;;10.65;100.00;102088.78;5032366;28;20040;-46
2023/05/28 04:23:43;;;;;;;34.03;18.25;;;;;;;10.68;100.00;102101.91;5014751;28;20037;-47
2023/05/28 04:26:09;;;;;;;33.15;18.15;;;;;;;10.66;100.00;102081.75;5032372;28;20120;-50
2023/05/28 04:28:36;;;;;;;33.50;18.90;;;;;;;10.66;100.00;102087.03;5032766;28;20060;-46
2023/05/28 04:31:02;;;;;;;38.70;19.30;;;;;;;10.69;100.00;102086.97;5032437;28;20033;-46
2023/05/28 04:33:28;;;;;;;32.30;18.20;;;;;;;10.78;100.00;102101.78;5032616;28;20039;-49
2023/05/28 04:35:55;;;;;;;32.28;17.75;;;;;;;10.78;100.00;102100.03;5032443;28;20040;-49
2023/05/28 04:38:20;;;;;;;32.38;17.92;;;;;;;10.81;100.00;102094.72;5032463;28;20030;-47
2023/05/28 04:40:45;;;;;;;33.90;19.02;;;;;;;10.44;100.00;102025.00;5014483;28;20483;-48
2023/05/28 04:43:11;;;;;;;29.35;18.27;;;;;;;10.87;100.00;102099.91;5032570;28;20090;-49
2023/05/28 04:45:37;;;;;;;36.33;17.88;;;;;;;10.92;100.00;102090.16;5032773;28;20030;-50
2023/05/28 04:48:04;;;;;;;29.00;17.65;;;;;;;10.89;100.00;102082.31;5032497;28;20040;-48
2023/05/28 04:50:29;;;;;;;32.83;16.83;;;;;;;10.98;100.00;102089.22;5031813;28;20037;-46
2023/05/28 04:52:55;;;;;;;35.42;17.52;;;;;;;11.04;100.00;102087.38;5032320;28;20037;-46
2023/05/28 04:55:20;;;;;;;36.67;18.08;;;;;;;10.70;100.00;102025.53;5032082;28;20045;-47
2023/05/28 04:57:46;;;;;;;35.60;18.30;;;;;;;11.12;100.00;102097.81;5014325;28;20473;-47
2023/05/28 05:00:14;;;;;;;34.30;17.83;;;;;;;11.13;100.00;102102.19;5032164;28;20516;-47
2023/05/28 05:02:41;;;;;;;36.08;17.35;;;;;;;11.02;100.00;102061.94;5032043;28;20515;-47
2023/05/28 05:05:07;;;;;;;33.50;16.83;;;;;;;11.16;100.00;102065.22;5031627;28;20040;-51
2023/05/28 05:07:37;;;;;;;30.55;18.17;;;;;;;10.93;100.00;102014.66;5032250;28;20033;-48
2023/05/28 05:10:09;;;;;;;28.65;16.77;;;;;;;11.38;100.00;102098.28;5032030;28;20033;-49
2023/05/28 05:12:35;;;;;;;35.25;18.58;;;;;;;11.37;100.00;102077.22;5014468;28;20060;-49
2023/05/28 05:15:00;;;;;;;33.30;17.33;;;;;;;11.22;100.00;102046.69;5032270;28;20049;-48
2023/05/28 05:17:26;;;;;;;35.63;17.67;;;;;;;11.62;100.00;102097.00;5032013;28;20038;-47
2023/05/28 05:19:52;;;;;;;30.75;16.83;;;;;;;11.58;100.00;102080.38;5031879;28;20048;-50
2023/05/28 05:22:17;;;;;;;27.60;16.88;;;;;;;11.72;100.00;102091.59;5031629;28;20447;-49
2023/05/28 05:24:43;;;;;;;27.85;16.42;;;;;;;11.25;100.00;101997.44;5031830;28;20064;-45
2023/05/28 05:27:08;;;;;;;30.15;17.25;;;;;;;11.92;100.00;102093.00;5031794;28;20037;-45
2023/05/28 05:29:33;;;;;;;28.63;16.80;;;;;;;11.99;100.00;102086.72;5014266;28;20041;-46
2023/05/28 05:31:59;;;;;;;29.42;16.77;;;;;;;12.06;100.00;102083.94;5031643;28;20476;-51
2023/05/28 05:34:24;;;;;;;28.33;16.00;;;;;;;11.83;100.00;102023.69;5031976;28;20460;-51
2023/05/28 05:36:50;;;;;;;28.23;14.77;;;;;;;12.31;100.00;102094.91;5031555;28;20116;-48
2023/05/28 05:39:15;;;;;;;26.80;16.77;;;;;;;12.07;100.00;102043.44;5031658;28;20045;-47
2023/05/28 05:41:40;;;;;;;28.52;15.07;;;;;;;12.16;100.00;102026.56;5032053;28;20034;-46
2023/05/28 05:44:06;;;;;;;24.20;15.02;;;;;;;12.16;100.00;102021.28;5031751;28;20034;-51
2023/05/28 05:46:31;;;;;;;29.33;15.60;;;;;;;12.39;100.00;102045.44;5031767;28;20041;-49
2023/05/28 05:48:56;;;;;;;26.35;14.90;;;;;;;12.81;100.00;102097.34;5014078;28;20029;-50
2023/05/28 05:51:22;;;;;;;28.42;14.75;;;;;;;12.62;100.00;102034.38;5031639;28;20411;-48
2023/05/28 05:53:47;;;;;;;26.30;14.15;;;;;;;12.97;100.00;102072.34;5031696;28;20045;-46
2023/05/28 05:56:12;;;;;;;27.98;15.10;;;;;;;13.14;100.00;102093.13;5032186;28;20041;-47
2023/05/28 05:58:38;;;;;;;23.35;15.43;;;;;;;13.29;100.00;102091.91;5031508;28;20069;-47
2023/05/28 06:01:04;;;;;;;27.75;14.60;;;;;;;13.08;100.00;102032.47;5031638;28;20041;-46
2023/05/28 06:03:30;;;;;;;26.42;13.68;;;;;;;13.46;100.00;102089.72;5034344;28;20080;-46
2023/05/28 06:05:56;;;;;;;27.85;14.90;;;;;;;13.50;100.00;102097.56;5035057;28;20068;-45
2023/05/28 06:08:21;;;;;;;24.30;15.02;;;;;;;13.65;100.00;102104.25;5035299;28;20073;-51
2023/05/28 06:10:51;;;;;;;25.10;14.43;;;;;;;13.80;100.00;102084.47;5017491;28;20040;-55
2023/05/28 06:13:16;;;;;;;22.20;13.43;;;;;;;13.32;100.00;102028.34;5017283;28;20395;-49
2023/05/28 06:15:41;;;;;;;24.33;13.00;;;;;;;13.49;100.00;102044.66;5034967;28;20116;-48
2023/05/28 06:18:07;;;;;;;20.35;12.85;;;;;;;13.73;100.00;102107.56;5034912;28;20031;-49
2023/05/28 06:20:33;;;;;;;22.38;12.60;;;;;;;13.76;100.00;102111.91;5034580;28;20041;-51
2023/05/28 06:22:58;;;;;;;30.25;13.05;;;;;;;13.83;100.00;102101.13;5034395;28;20370;-46
2023/05/28 06:25:23;;;;;;;25.23;13.43;;;;;;;13.91;100.00;102074.44;5034911;28;20042;-50
2023/05/28 06:27:49;;;;;;;20.05;12.68;;;;;;;14.24;100.00;102104.47;5034818;28;20038;-51
2023/05/28 06:30:15;;;;;;;26.08;12.25;;;;;;;14.43;100.00;102100.41;5034753;28;20437;-51
2023/05/28 06:32:41;;;;;;;22.10;12.05;;;;;;;14.56;100.00;102105.28;5034866;28;20583;-48
2023/05/28 06:35:07;;;;;;;18.30;10.10;;;;;;;14.69;100.00;102084.63;5034612;28;20041;-48
2023/05/28 06:37:33;;;;;;;17.27;10.95;;;;;;;14.69;100.00;102066.06;5034535;28;20044;-45
2023/05/28 06:39:58;;;;;;;20.63;9.90;;;;;;;15.05;100.00;102103.84;5016826;28;20124;-45
2023/05/28 06:42:24;;;;;;;19.13;10.10;;;;;;;14.90;100.00;102076.03;5034378;28;20487;-47
2023/05/28 06:44:49;;;;;;;18.30;9.93;;;;;;;15.40;100.00;102114.22;5034359;28;20476;-48
2023/05/28 06:47:14;;;;;;;14.65;9.60;;;;;;;15.06;100.00;102068.47;5033743;28;20042;-48
2023/05/28 06:49:40;;;;;;;23.83;10.23;;;;;;;15.49;100.00;102113.09;5033596;28;20052;-46
2023/05/28 06:52:06;;;;;;;20.10;10.38;;;;;;;15.61;100.00;102113.56;5015898;28;20412;-46
2023/05/28 06:54:31;;;;;;;21.92;10.20;;;;;;;15.72;100.00;102103.47;5034119;28;20042;-47
2023/05/28 06:56:56;;;;;;;18.35;9.85;;;;;;;15.90;100.00;102123.22;5034113;28;20074;-47
2023/05/28 06:59:22;;;;;;;19.20;9.93;;;;;;;15.70;100.00;102069.91;5033805;28;20044;-46
2023/05/28 07:01:47;;;;;;;18.45;9.15;;;;;;;16.14;100.00;102119.69;5034074;28;20029;-47
2023/05/28 07:04:12;;;;;;;21.10;9.35;;;;;;;16.16;100.00;102119.66;5034097;28;20029;-47
2023/05/28 07:06:38;;;;;;;19.05;9.90;;;;;;;16.14;100.00;102063.91;5020248;28;20046;-45
2023/05/28 07:09:04;;;;;;;20.95;9.73;;;;;;;15.90;100.00;102080.72;5013658;28;20033;-48
2023/05/28 07:11:29;;;;;;;21.17;9.38;;;;;;;16.29;100.00;102132.44;4996501;28;20112;-49
2023/05/28 07:13:55;;;;;;;15.43;9.20;;;;;;;16.43;100.00;102144.38;5012613;28;20038;-51
2023/05/28 07:16:21;;;;;;;16.80;8.73;;;;;;;16.10;100.00;102088.84;4996329;28;20037;-48
2023/05/28 07:18:46;;;;;;;17.95;8.80;;;;;;;16.23;100.00;102092.78;4996436;28;20034;-48
2023/05/28 07:21:12;;;;;;;14.05;8.52;;;;;;;16.39;100.00;102085.13;5013977;28;20073;-47
2023/05/28 07:23:37;;;;;;;16.30;8.55;;;;;;;16.33;100.00;102082.72;4996607;28;20048;-46
2023/05/28 07:26:03;;;;;;;16.77;8.00;;;;;;;16.60;100.00;102164.13;4996262;28;20100;-47
2023/05/28 07:28:28;;;;;;;20.55;8.65;;;;;;;16.71;100.00;102140.69;5013776;28;20092;-46
2023/05/28 07:30:53;;;;;;;14.88;8.38;;;;;;;16.95;100.00;102164.63;4996302;28;20044;-50
2023/05/28 07:33:18;;;;;;;15.55;8.60;;;;;;;17.00;100.00;102160.84;5013839;28;20053;-51
2023/05/28 07:35:44;;;;;;;16.63;8.38;;;;;;;16.78;100.00;102099.63;5013598;28;20499;-48
2023/05/28 07:38:12;;;;;;;18.65;8.40;;;;;;;17.23;100.00;102104.06;5013837;28;20038;-49
2023/05/28 07:40:37;;;;;;;14.00;8.13;;;;;;;17.93;100.00;102158.00;5013637;28;20042;-48
2023/05/28 07:43:03;;;;;;;17.25;7.25;;;;;;;18.26;100.00;102169.91;5013586;28;20483;-53
2023/05/28 07:45:28;;;;;;;15.52;7.32;;;;;;;18.09;100.00;102160.91;5013375;28;20480;-51
2023/05/28 07:47:53;;;;;;;15.30;7.53;;;;;;;18.48;100.00;102178.72;4995814;28;20026;-49
2023/05/28 07:50:19;;;;;;;17.25;7.07;;;;;;;18.29;100.00;102116.47;5013312;28;20535;-48
2023/05/28 07:52:45;;;;;;;18.08;7.93;;;;;;;18.63;100.00;102181.63;5013164;28;20552;-48
2023/05/28 07:55:11;;;;;;;13.27;7.22;;;;;;;19.01;100.00;102186.09;5013142;28;20140;-51
2023/05/28 07:57:36;;;;;;;16.13;6.97;;;;;;;19.27;100.00;102187.56;5013516;28;20073;-47
2023/05/28 08:00:06;;;;;;;13.30;7.15;;;;;;;19.38;100.00;102146.06;5013388;28;20112;-49
2023/05/28 08:02:31;;;;;;;13.70;6.60;;;;;;;19.54;100.00;102132.84;4996353;28;20460;-48
2023/05/28 08:04:57;;;;;;;14.65;7.25;;;;;;;20.16;100.00;102191.19;5012837;28;20041;-48
2023/05/28 08:07:22;;;;;;;10.82;6.03;;;;;;;20.80;100.00;102177.13;4995557;28;20037;-51
2023/05/28 08:09:47;;;;;;;17.27;6.45;;;;;;;21.05;100.00;102181.06;4995820;28;20030;-46
2023/05/28 08:12:13;;;;;;;15.20;7.40;;;;;;;21.54;100.00;102179.22;5013071;28;20044;-46
2023/05/28 08:14:38;;;;;;;16.25;7.40;;;;;;;21.18;100.00;102141.13;5012985;28;20041;-47
2023/05/28 08:17:03;;;;;;;12.85;6.18;;;;;;;21.00;100.00;102195.66;5013034;28;20424;-46
2023/05/28 08:19:29;;;;;;;20.63;7.05;;;;;;;21.45;100.00;102157.47;5012928;28;20053;-50
2023/05/28 08:21:54;;;;;;;12.80;6.35;;;;;;;21.98;100.00;102190.09;5013351;28;20034;-47
2023/05/28 08:24:20;;;;;;;17.67;7.78;;;;;;;21.31;100.00;102139.47;5012961;28;20539;-47
2023/05/28 08:26:46;;;;;;;13.65;6.47;;;;;;;21.31;100.00;102148.38;5011519;28;20038;-46
2023/05/28 08:29:11;;;;;;;12.70;6.15;;;;;;;21.55;100.00;102183.63;5012833;28;20120;-51
2023/05/28 08:31:36;;;;;;;14.00;6.35;;;;;;;21.01;100.00;102190.22;5013010;28;20038;-47
2023/05/28 08:34:02;;;;;;;16.70;6.32;;;;;;;20.59;100.00;102128.31;4995162;28;20033;-48
2023/05/28 08:36:27;;;;;;;12.32;6.32;;;;;;;20.33;100.00;102121.69;5012950;28;20505;-46
2023/05/28 08:38:53;;;;;;;14.85;6.10;;;;;;;20.61;100.00;102174.56;5012824;28;20034;-47
2023/05/28 08:41:19;;;;;;;12.95;6.82;;;;;;;19.90;100.00;102141.72;5012543;28;20034;-49
2023/05/28 08:43:45;;;;;;;16.73;6.65;;;;;;;20.04;100.00;102192.66;5012688;28;20026;-49
2023/05/28 08:46:10;;;;;;;15.50;7.18;;;;;;;19.87;100.00;102116.97;5012591;28;20389;-49
2023/05/28 08:48:36;;;;;;;15.38;6.63;;;;;;;20.35;100.00;102175.06;5012480;28;20441;-49
2023/05/28 08:51:02;;;;;;;17.73;7.13;;;;;;;20.11;100.00;102163.81;5012276;28;20116;-47
2023/05/28 08:53:32;;;;;;;15.57;7.03;;;;;;;20.40;100.00;102168.53;4995261;28;20061;-51
2023/05/28 08:55:58;;;;;;;11.52;5.88;;;;;;;20.17;100.00;102107.34;5012361;28;20113;-46
2023/05/28 08:58:24;;;;;;;10.48;5.93;;;;;;;20.76;100.00;102129.13;4995077;28;20455;-47
2023/05/28 09:00:50;;;;;;;11.05;6.47;;;;;;;20.46;100.00;102140.63;4994830;28;20496;-47
2023/05/28 09:03:16;;;;;;;15.13;6.13;;;;;;;20.99;100.00;102188.56;4994684;28;20037;-51
2023/05/28 09:05:42;;;;;;;11.43;5.90;;;;;;;20.39;100.00;102123.16;5012447;28;20128;-49
2023/05/28 09:08:09;;;;;;;11.25;5.93;;;;;;;20.18;100.00;102122.44;4994883;28;20045;-48
2023/05/28 09:10:37;;;;;;;14.07;6.60;;;;;;;21.04;100.00;102179.38;5010923;28;20112;-49
2023/05/28 09:13:04;;;;;;;13.40;5.72;;;;;;;21.38;100.00;102140.88;4994329;28;20057;-47
2023/05/28 09:15:30;;;;;;;13.35;5.80;;;;;;;21.91;100.00;102127.06;5011013;28;20478;-49
2023/05/28 09:17:55;;;;;;;13.05;5.80;;;;;;;22.53;100.00;102127.75;4977903;28;20034;-49
2023/05/28 09:20:21;;;;;;;12.93;5.18;;;;;;;23.16;100.00;102198.06;5012175;28;20046;-50
2023/05/28 09:23:04;;;;;;;14.85;5.60;;;;;;;23.13;100.00;102206.31;4994519;28;20516;-50
2023/05/28 09:25:34;;;;;;;13.95;5.80;;;;;;;23.14;100.00;102202.69;4994424;28;20034;-46
2023/05/28 09:28:00;;;;;;;17.77;5.77;;;;;;;22.95;100.00;102178.78;4994630;28;20053;-47
2023/05/28 09:30:26;;;;;;;14.40;5.60;;;;;;;22.28;100.00;102203.50;5011916;28;20493;-49
2023/05/28 09:32:57;;;;;;;12.93;5.35;;;;;;;21.89;100.00;102193.28;5012154;28;20083;-48
2023/05/28 09:35:25;;;;;;;12.52;5.50;;;;;;;21.44;100.00;102135.16;5012179;28;20112;-49
2023/05/28 09:38:02;;;;;;;15.05;5.75;;;;;;;21.62;100.00;102176.13;5013917;28;20105;-46
2023/05/28 09:40:28;;;;;;;11.63;5.70;;;;;;;21.63;100.00;102192.09;4981948;28;20497;-49
2023/05/28 09:42:53;;;;;;;14.30;6.45;;;;;;;21.77;100.00;102183.28;5015412;28;20049;-47
2023/05/28 09:45:26;;;;;;;13.57;5.40;;;;;;;21.66;100.00;102185.69;5015797;28;20049;-50
2023/05/28 09:47:52;;;;;;;13.45;7.10;;;;;;;21.44;100.00;102187.88;5015694;28;20416;-48
2023/05/28 09:50:17;;;;;;;13.32;5.88;;;;;;;20.64;100.00;102153.00;4998140;28;20042;-49
2023/05/28 09:52:44;;;;;;;15.38;6.22;;;;;;;20.50;100.00;102137.69;5015078;28;20046;-52
2023/05/28 09:55:13;;;;;;;11.70;4.78;;;;;;;21.35;100.00;102186.56;4998139;28;20029;-51
2023/05/28 09:57:44;;;;;;;11.02;5.30;;;;;;;21.32;100.00;102159.97;5015501;28;20022;-52
2023/05/28 10:00:19;;;;;;;15.40;5.45;;;;;;;21.83;100.00;102154.28;5015540;28;20034;-50
2023/05/28 10:03:00;;;;;;;14.98;6.03;;;;;;;21.76;100.00;102200.31;4998856;28;20026;-51
2023/05/28 10:05:28;;;;;;;11.32;5.63;;;;;;;22.10;100.00;102175.97;5015662;28;20030;-48
2023/05/28 10:07:55;;;;;;;10.15;5.32;;;;;;;22.63;100.00;102169.16;5015321;28;20029;-47
2023/05/28 10:10:21;;;;;;;11.38;5.65;;;;;;;23.09;100.00;102189.53;4997773;28;20038;-48
2023/05/28 10:12:47;;;;;;;9.15;5.43;;;;;;;23.44;100.00;102219.53;5015420;28;20382;-48
2023/05/28 10:15:13;;;;;;;11.13;5.88;;;;;;;24.03;100.00;102202.16;5015266;28;20045;-49
2023/05/28 10:17:39;;;;;;;13.23;5.90;;;;;;;23.97;100.00;102195.38;5015087;28;20034;-48
2023/05/28 10:20:05;;;;;;;13.98;5.53;;;;;;;24.47;100.00;102201.88;4997274;28;20042;-48
2023/05/28 10:22:31;;;;;;;11.48;5.55;;;;;;;24.99;100.00;102205.34;5015078;28;20030;-48
2023/05/28 10:24:58;;;;;;;13.40;5.65;;;;;;;25.38;100.00;102209.69;4981795;28;20500;-50
2023/05/28 10:27:30;;;;;;;23.63;6.85;;;;;;;25.18;100.00;102168.03;5015001;28;20042;-49
2023/05/28 10:29:55;;;;;;;12.23;6.35;;;;;;;26.07;100.00;102210.84;4997752;28;20045;-47
2023/05/28 10:32:20;;;;;;;13.80;5.45;;;;;;;25.67;100.00;102172.53;5014723;28;20397;-54
2023/05/28 10:34:46;;;;;;;11.88;5.97;;;;;;;26.46;100.00;102215.94;4996220;28;20081;-48
2023/05/28 10:37:13;;;;;;;14.07;6.43;;;;;;;25.84;100.00;102164.03;5014629;28;20046;-49
2023/05/28 10:39:41;;;;;;;12.35;5.68;;;;;;;25.53;100.00;102227.50;5014933;28;20111;-49
2023/05/28 10:42:17;;;;;;;13.55;6.35;;;;;;;24.89;100.00;102177.34;5014703;28;20040;-50
2023/05/28 10:45:06;;;;;;;14.77;6.63;;;;;;;24.87;100.00;102208.91;5018502;28;20400;-51
2023/05/28 10:47:37;;;;;;;14.98;6.32;;;;;;;24.10;100.00;102211.59;5020579;28;20096;-46
2023/05/28 10:50:08;;;;;;;;;;;;;;;23.44;100.00;102217.72;4997558;28;20034;-48
2023/05/28 10:52:34;;;;;;;12.73;5.53;;;;;;;23.44;100.00;102173.84;5017871;28;19963;-49
2023/05/28 10:55:02;;;;;;;13.07;5.28;;;;;;;24.53;100.00;102207.69;5002802;28;20425;-47
2023/05/28 10:57:42;;;;;;;10.52;5.07;;;;;;;24.73;100.00;102211.69;5022581;28;20052;-52
2023/05/28 11:00:12;;;;;;;20.30;6.83;;;;;;;24.51;100.00;102157.63;4999691;28;20380;-52